San Luis Obispo (SBP/KSBP)

Map

Destinations

Information

Location
San Luis Obispo, CA
Local Time
15:41 / 3:41 pm
GMT Time
22:41 / 10:41 pm
Gates
3
No FAA reported delays
METAR KSBP 242156Z 23007KT 10SM CLR 23/14 A2989 RMK AO2 SLP120 T02280144
TAF KSBP 242139Z 2422/2518 28007KT P6SM SCT120 FM250500 VRB05KT P6SM SCT005 FM250700 VRB05KT P6SM BKN005